createdAt,value
2023-04-18T00:01:34.650Z,8.65
2023-04-18T00:04:03.027Z,8.45
2023-04-18T00:06:31.868Z,9.98
2023-04-18T00:08:59.925Z,8.27
2023-04-18T00:11:27.909Z,7.63
2023-04-18T00:13:57.469Z,7.95
2023-04-18T00:16:25.637Z,7.57
2023-04-18T00:18:55.236Z,9.45
2023-04-18T00:21:25.596Z,7.25
2023-04-18T00:23:53.817Z,7.43
2023-04-18T00:26:21.903Z,7.10
2023-04-18T00:28:50.133Z,5.88
2023-04-18T00:31:20.450Z,6.20
2023-04-18T00:33:49.180Z,6.32
2023-04-18T00:36:17.206Z,5.85
2023-04-18T00:38:46.308Z,6.30
2023-04-18T00:41:16.501Z,7.28
2023-04-18T00:43:44.505Z,6.95
2023-04-18T00:46:12.697Z,6.35
2023-04-18T00:48:42.179Z,6.70
2023-04-18T00:51:11.216Z,6.03
2023-04-18T00:53:39.346Z,5.93
2023-04-18T00:56:07.772Z,6.15
2023-04-18T00:58:35.978Z,5.68
2023-04-18T01:01:04.107Z,5.78
2023-04-18T01:03:52.471Z,5.90
2023-04-18T01:06:20.985Z,7.03
2023-04-18T01:08:49.191Z,6.88
2023-04-18T01:11:19.406Z,5.70
2023-04-18T01:14:00.066Z,6.45
2023-04-18T01:16:29.661Z,6.05
2023-04-18T01:18:59.183Z,6.18
2023-04-18T01:21:31.353Z,6.57
2023-04-18T01:24:04.180Z,6.47
2023-04-18T01:26:33.692Z,6.18
2023-04-18T01:29:04.750Z,4.85
2023-04-18T01:31:35.371Z,5.30
2023-04-18T01:34:05.731Z,5.65
2023-04-18T01:36:34.329Z,5.45
2023-04-18T01:39:04.217Z,5.28
2023-04-18T01:41:33.636Z,6.47
2023-04-18T01:44:02.005Z,5.25
2023-04-18T01:46:30.400Z,6.25
2023-04-18T01:48:58.855Z,6.20
2023-04-18T01:51:31.421Z,6.35
2023-04-18T01:54:00.228Z,6.47
2023-04-18T01:56:28.295Z,6.00
2023-04-18T01:59:00.520Z,6.38
2023-04-18T02:01:29.419Z,6.35
2023-04-18T02:04:00.147Z,5.70
2023-04-18T02:06:28.400Z,5.97
2023-04-18T02:08:56.352Z,5.78
2023-04-18T02:11:26.432Z,5.53
2023-04-18T02:13:54.496Z,6.10
2023-04-18T02:16:24.105Z,5.13
2023-04-18T02:18:52.930Z,6.40
2023-04-18T02:21:21.979Z,4.85
2023-04-18T02:23:51.143Z,6.03
2023-04-18T02:26:23.140Z,5.97
2023-04-18T02:28:52.216Z,6.57
2023-04-18T02:31:20.318Z,6.38
2023-04-18T02:33:49.702Z,6.20
2023-04-18T02:36:17.708Z,5.43
2023-04-18T02:38:46.020Z,6.00
2023-04-18T02:41:17.483Z,4.90
2023-04-18T02:43:45.750Z,5.55
2023-04-18T02:46:16.142Z,4.50
2023-04-18T02:48:46.876Z,4.72
2023-04-18T02:51:19.937Z,5.03
2023-04-18T02:53:48.429Z,5.07
2023-04-18T02:56:17.968Z,6.38
2023-04-18T02:59:04.269Z,6.90
2023-04-18T03:01:45.921Z,6.82
2023-04-18T03:04:17.846Z,6.20
2023-04-18T03:06:56.125Z,6.85
2023-04-18T03:09:24.382Z,6.65
2023-04-18T03:11:57.821Z,6.70
2023-04-18T03:14:28.806Z,6.85
2023-04-18T03:16:57.465Z,5.63
2023-04-18T03:22:07.388Z,6.78
2023-04-18T03:24:40.059Z,9.02
2023-04-18T03:27:09.422Z,8.15
2023-04-18T03:29:40.084Z,8.48
2023-04-18T03:32:08.766Z,7.88
2023-04-18T03:34:36.989Z,8.70
2023-04-18T03:37:09.330Z,8.93
2023-04-18T03:39:43.963Z,7.18
2023-04-18T03:42:12.327Z,7.40
2023-04-18T03:44:41.948Z,7.35
2023-04-18T03:47:10.349Z,6.93
2023-04-18T03:49:41.848Z,7.47
2023-04-18T03:52:11.592Z,7.28
2023-04-18T03:54:39.704Z,7.32
2023-04-18T03:57:07.840Z,7.07
2023-04-18T03:59:37.897Z,6.75
2023-04-18T04:02:07.828Z,8.88
2023-04-18T04:04:36.155Z,5.93
2023-04-18T04:07:04.637Z,5.80
2023-04-18T04:09:34.097Z,5.55
2023-04-18T04:12:02.423Z,5.95
2023-04-18T04:14:31.272Z,6.50
2023-04-18T04:16:59.509Z,7.18
2023-04-18T04:19:27.588Z,6.13
2023-04-18T04:22:06.786Z,7.13
2023-04-18T04:24:38.457Z,6.00
2023-04-18T04:27:08.216Z,6.13
2023-04-18T04:29:39.384Z,6.63
2023-04-18T04:32:08.618Z,7.20
2023-04-18T04:34:41.393Z,6.70
2023-04-18T04:37:14.096Z,6.70
2023-04-18T04:39:56.594Z,7.30
2023-04-18T04:42:37.688Z,7.00
2023-04-18T04:45:13.118Z,7.47
2023-04-18T04:47:41.324Z,6.85
2023-04-18T04:50:14.750Z,6.80
2023-04-18T04:52:42.990Z,7.82
2023-04-18T04:55:12.494Z,7.97
2023-04-18T04:57:42.071Z,7.72
2023-04-18T05:00:42.717Z,6.68
2023-04-18T05:03:11.813Z,6.95
2023-04-18T05:05:40.279Z,8.07
2023-04-18T05:08:08.366Z,7.03
2023-04-18T05:10:37.997Z,8.20
2023-04-18T05:13:06.189Z,7.25
2023-04-18T05:15:34.270Z,7.40
2023-04-18T05:18:03.468Z,7.60
2023-04-18T05:20:32.291Z,7.38
2023-04-18T05:23:00.389Z,7.13
2023-04-18T05:25:29.831Z,7.10
2023-04-18T05:28:04.521Z,8.48
2023-04-18T05:30:33.865Z,7.43
2023-04-18T05:33:02.038Z,7.57
2023-04-18T05:35:30.295Z,7.10
2023-04-18T05:37:59.546Z,8.65
2023-04-18T05:40:28.342Z,8.13
2023-04-18T05:42:56.440Z,7.80
2023-04-18T05:45:25.782Z,8.10
2023-04-18T05:47:54.608Z,7.68
2023-04-18T05:50:23.189Z,8.48
2023-04-18T05:52:51.272Z,8.10
2023-04-18T05:55:19.674Z,8.27
2023-04-18T05:57:48.052Z,8.00
2023-04-18T06:00:17.171Z,7.82
2023-04-18T06:02:46.903Z,7.10
2023-04-18T06:05:15.616Z,6.50
2023-04-18T06:07:43.992Z,8.32
2023-04-18T06:10:13.627Z,7.03
2023-04-18T06:12:42.076Z,8.25
2023-04-18T06:15:11.761Z,6.82
2023-04-18T06:17:39.872Z,8.10
2023-04-18T06:20:11.285Z,8.63
2023-04-18T06:22:39.453Z,9.80
2023-04-18T06:25:10.153Z,8.50
2023-04-18T06:27:38.960Z,8.13
2023-04-18T06:30:08.195Z,8.13
2023-04-18T06:32:36.327Z,8.80
2023-04-18T06:35:04.785Z,9.13
2023-04-18T06:37:34.402Z,8.52
2023-04-18T06:40:02.460Z,10.55
2023-04-18T06:42:31.234Z,9.23
2023-04-18T06:44:59.358Z,9.55
2023-04-18T06:47:27.560Z,8.90
2023-04-18T06:49:55.545Z,8.65
2023-04-18T06:52:23.819Z,9.77
2023-04-18T06:54:53.264Z,7.93
2023-04-18T06:57:21.633Z,8.73
2023-04-18T06:59:49.692Z,8.93
2023-04-18T07:02:17.878Z,8.52
2023-04-18T07:04:46.094Z,8.73
2023-04-18T07:07:14.225Z,8.18
2023-04-18T07:09:42.372Z,8.63
2023-04-18T07:12:11.881Z,8.70
2023-04-18T07:14:40.061Z,8.80
2023-04-18T07:17:08.263Z,8.25
2023-04-18T07:19:36.589Z,7.88
2023-04-18T07:22:04.638Z,8.45
2023-04-18T07:24:32.665Z,8.13
2023-04-18T07:27:01.487Z,8.90
2023-04-18T07:29:31.169Z,8.02
2023-04-18T07:31:59.641Z,8.88
2023-04-18T07:34:29.869Z,8.23
2023-04-18T07:36:58.130Z,8.88
2023-04-18T07:39:26.414Z,8.77
2023-04-18T07:41:54.813Z,10.13
2023-04-18T07:44:25.384Z,8.90
2023-04-18T07:46:55.885Z,8.88
2023-04-18T07:49:23.892Z,8.02
2023-04-18T07:51:52.050Z,8.15
2023-04-18T07:54:20.108Z,9.23
2023-04-18T07:56:48.265Z,8.48
2023-04-18T07:59:16.619Z,8.55
2023-04-18T08:01:45.095Z,9.68
2023-04-18T08:04:15.089Z,10.45
2023-04-18T08:06:43.324Z,8.23
2023-04-18T08:09:12.086Z,8.10
2023-04-18T08:11:42.074Z,7.68
2023-04-18T08:14:10.240Z,8.25
2023-04-18T08:16:38.444Z,9.38
2023-04-18T08:19:06.974Z,9.60
2023-04-18T08:21:36.546Z,8.70
2023-04-18T08:24:04.705Z,8.57
2023-04-18T08:26:32.866Z,8.70
2023-04-18T08:29:00.906Z,8.73
2023-04-18T08:31:31.683Z,8.35
2023-04-18T08:33:59.808Z,8.32
2023-04-18T08:36:28.044Z,8.45
2023-04-18T08:38:58.117Z,7.57
2023-04-18T08:41:28.746Z,6.80
2023-04-18T08:43:57.216Z,6.22
2023-04-18T08:46:25.575Z,6.28
2023-04-18T08:48:53.819Z,6.55
2023-04-18T08:51:21.920Z,6.95
2023-04-18T08:53:50.721Z,6.40
2023-04-18T08:56:22.477Z,5.63
2023-04-18T08:58:50.833Z,6.13
2023-04-18T09:01:18.955Z,6.20
2023-04-18T09:03:47.142Z,6.07
2023-04-18T09:06:18.993Z,5.90
2023-04-18T09:08:57.544Z,5.20
2023-04-18T09:11:28.982Z,5.00
2023-04-18T09:13:59.964Z,5.68
2023-04-18T09:16:29.344Z,5.45
2023-04-18T09:19:11.985Z,5.72
2023-04-18T09:21:41.849Z,5.15
2023-04-18T09:24:23.980Z,5.88
2023-04-18T09:26:55.881Z,5.32
2023-04-18T09:29:42.205Z,4.70
2023-04-18T09:32:11.319Z,6.30
2023-04-18T09:34:43.137Z,5.15
2023-04-18T09:37:12.470Z,5.10
2023-04-18T09:39:42.438Z,5.38
2023-04-18T09:42:12.660Z,4.85
2023-04-18T09:44:59.616Z,4.90
2023-04-18T09:47:29.017Z,4.70
2023-04-18T09:49:57.626Z,5.25
2023-04-18T09:52:26.837Z,5.13
2023-04-18T09:55:00.832Z,5.00
2023-04-18T09:57:32.456Z,5.03
2023-04-18T10:00:08.745Z,4.70
2023-04-18T10:02:48.599Z,5.13
2023-04-18T10:05:19.530Z,4.82
2023-04-18T10:07:50.648Z,4.57
2023-04-18T10:10:19.213Z,4.18
2023-04-18T10:12:51.750Z,4.53
2023-04-18T10:15:22.162Z,3.85
2023-04-18T10:18:04.410Z,3.10
2023-04-18T10:20:35.388Z,2.58
2023-04-18T10:23:37.610Z,2.75
2023-04-18T10:26:09.874Z,2.97
2023-04-18T10:28:54.674Z,2.67
2023-04-18T10:31:24.496Z,3.65
2023-04-18T10:36:28.452Z,3.67
2023-04-18T10:39:02.942Z,4.75
2023-04-18T10:41:33.450Z,3.13
2023-04-18T10:44:32.823Z,3.85
2023-04-18T10:47:31.621Z,3.53
2023-04-18T10:50:06.153Z,3.60
2023-04-18T10:52:35.156Z,3.22
2023-04-18T10:55:14.746Z,2.50
2023-04-18T10:57:47.053Z,2.95
2023-04-18T11:00:18.634Z,2.72
2023-04-18T11:02:53.903Z,3.50
2023-04-18T11:05:25.040Z,2.70
2023-04-18T11:07:53.420Z,3.13
2023-04-18T11:10:23.772Z,2.72
2023-04-18T11:12:52.560Z,4.40
2023-04-18T11:15:23.870Z,2.85
2023-04-18T11:18:00.015Z,2.63
2023-04-18T11:20:28.630Z,2.88
2023-04-18T11:22:57.664Z,2.30
2023-04-18T11:25:27.814Z,2.40
2023-04-18T11:27:59.203Z,2.20
2023-04-18T11:30:31.385Z,2.38
2023-04-18T11:32:59.542Z,1.85
2023-04-18T11:35:28.017Z,2.20
2023-04-18T11:37:56.519Z,2.33
2023-04-18T11:40:24.653Z,2.75
2023-04-18T11:42:55.763Z,2.53
2023-04-18T11:45:23.973Z,2.22
2023-04-18T11:47:57.479Z,2.83
2023-04-18T11:50:28.025Z,2.22
2023-04-18T11:52:57.819Z,2.70
2023-04-18T11:55:27.372Z,3.28
2023-04-18T11:57:56.589Z,2.28
2023-04-18T12:00:35.432Z,2.28
2023-04-18T12:03:06.896Z,2.28
2023-04-18T12:05:37.120Z,2.30
2023-04-18T12:08:13.125Z,2.10
2023-04-18T12:10:47.827Z,2.50
2023-04-18T12:13:16.143Z,2.28
2023-04-18T12:15:45.665Z,2.33
2023-04-18T12:18:18.279Z,2.58
2023-04-18T12:23:32.869Z,1.70
2023-04-18T12:26:02.369Z,2.25
2023-04-18T12:28:31.039Z,2.33
2023-04-18T12:30:59.352Z,2.67
2023-04-18T12:33:29.004Z,2.00
2023-04-18T12:35:57.434Z,2.70
2023-04-18T12:38:25.708Z,3.10
2023-04-18T12:40:53.953Z,2.33
2023-04-18T12:43:22.016Z,2.80
2023-04-18T12:45:51.522Z,2.38
2023-04-18T12:48:19.664Z,2.78
2023-04-18T12:50:49.145Z,2.53
2023-04-18T12:53:17.416Z,2.72
2023-04-18T12:55:45.886Z,3.17
2023-04-18T12:58:18.579Z,2.42
2023-04-18T13:00:46.988Z,2.45
2023-04-18T13:03:15.589Z,2.88
2023-04-18T13:05:43.887Z,2.72
2023-04-18T13:08:17.627Z,2.60
2023-04-18T13:10:47.639Z,2.42
2023-04-18T13:13:16.728Z,2.15
2023-04-18T13:15:44.859Z,2.25
2023-04-18T13:18:13.059Z,2.00
2023-04-18T13:20:41.144Z,1.98
2023-04-18T13:23:09.183Z,2.47
2023-04-18T13:25:38.563Z,2.40
2023-04-18T13:28:06.798Z,1.92
2023-04-18T13:30:35.848Z,1.90
2023-04-18T13:33:05.274Z,2.20
2023-04-18T13:35:33.419Z,2.00
2023-04-18T13:38:01.475Z,2.33
2023-04-18T13:40:29.509Z,2.50
2023-04-18T13:42:58.930Z,5.20
2023-04-18T13:45:27.502Z,2.20
2023-04-18T13:47:55.605Z,2.30
2023-04-18T13:50:24.463Z,2.03
2023-04-18T13:52:54.659Z,2.25
2023-04-18T13:55:22.945Z,2.30
2023-04-18T13:57:51.102Z,2.65
2023-04-18T14:00:21.650Z,2.35
2023-04-18T14:02:51.088Z,2.33
2023-04-18T14:05:19.477Z,2.22
2023-04-18T14:07:48.607Z,2.13
2023-04-18T14:10:16.668Z,1.90
2023-04-18T14:12:44.798Z,1.98
2023-04-18T14:15:13.146Z,2.60
2023-04-18T14:17:45.313Z,1.85
2023-04-18T14:22:43.918Z,2.10
2023-04-18T14:25:12.015Z,2.10
2023-04-18T14:27:40.401Z,2.08
2023-04-18T14:30:10.114Z,2.30
2023-04-18T14:32:38.270Z,2.15
2023-04-18T14:35:09.324Z,2.30
2023-04-18T14:37:40.822Z,2.22
2023-04-18T14:40:11.320Z,1.90
2023-04-18T14:42:39.493Z,2.40
2023-04-18T14:45:08.794Z,3.17
2023-04-18T14:47:39.102Z,2.10
2023-04-18T14:50:11.855Z,2.13
2023-04-18T14:52:40.434Z,2.13
2023-04-18T14:55:09.870Z,1.63
2023-04-18T14:57:39.202Z,2.28
2023-04-18T15:00:11.425Z,1.92
2023-04-18T15:02:40.044Z,2.42
2023-04-18T15:05:11.123Z,1.70
2023-04-18T15:07:40.793Z,2.55
2023-04-18T15:10:12.655Z,1.65
2023-04-18T15:12:41.666Z,1.55
2023-04-18T15:15:10.497Z,1.80
2023-04-18T15:17:38.707Z,1.38
2023-04-18T15:20:09.504Z,1.77
2023-04-18T15:22:37.784Z,2.67
2023-04-18T15:25:06.646Z,2.20
2023-04-18T15:27:34.880Z,1.90
2023-04-18T15:30:03.836Z,2.17
2023-04-18T15:32:32.985Z,2.58
2023-04-18T15:35:01.084Z,2.17
2023-04-18T15:37:30.539Z,2.20
2023-04-18T15:39:58.789Z,2.10
2023-04-18T15:42:28.035Z,1.88
2023-04-18T15:44:56.393Z,2.03
2023-04-18T15:47:24.484Z,1.95
2023-04-18T15:49:52.575Z,1.98
2023-04-18T15:52:20.756Z,1.80
2023-04-18T15:54:53.038Z,2.22
2023-04-18T15:57:21.974Z,1.75
2023-04-18T15:59:50.123Z,1.77
2023-04-18T16:02:18.250Z,1.95
2023-04-18T16:04:46.708Z,1.40
2023-04-18T16:07:16.012Z,1.60
2023-04-18T16:09:44.163Z,2.03
2023-04-18T16:12:13.640Z,3.08
2023-04-18T16:14:41.782Z,2.00
2023-04-18T16:17:09.946Z,1.80
2023-04-18T16:19:40.935Z,1.92
2023-04-18T16:22:09.122Z,2.05
2023-04-18T16:24:37.184Z,1.88
2023-04-18T16:27:05.747Z,1.80
2023-04-18T16:29:35.501Z,2.20
2023-04-18T16:32:03.789Z,1.98
2023-04-18T16:34:32.073Z,2.03
2023-04-18T16:37:00.188Z,1.80
2023-04-18T16:39:31.505Z,2.20
2023-04-18T16:41:59.733Z,1.75
2023-04-18T16:44:27.941Z,1.70
2023-04-18T16:46:57.424Z,1.90
2023-04-18T16:49:26.159Z,1.90
2023-04-18T16:51:54.212Z,1.70
2023-04-18T16:54:22.356Z,2.20
2023-04-18T16:56:50.442Z,1.60
2023-04-18T16:59:18.570Z,1.60
2023-04-18T17:01:46.764Z,2.35
2023-04-18T17:04:17.228Z,1.75
2023-04-18T17:06:45.574Z,2.10
2023-04-18T17:09:14.826Z,1.77
2023-04-18T17:11:43.110Z,1.75
2023-04-18T17:14:11.564Z,1.92
2023-04-18T17:16:41.695Z,1.88
2023-04-18T17:19:11.292Z,2.03
2023-04-18T17:21:40.906Z,1.92
2023-04-18T17:24:09.431Z,1.73
2023-04-18T17:26:39.527Z,2.78
2023-04-18T17:29:08.798Z,1.80
2023-04-18T17:31:37.461Z,3.10
2023-04-18T17:34:06.101Z,1.92
2023-04-18T17:36:34.385Z,1.95
2023-04-18T17:39:06.459Z,1.80
2023-04-18T17:41:37.699Z,1.92
2023-04-18T17:44:07.887Z,1.75
2023-04-18T17:46:36.363Z,2.10
2023-04-18T17:49:04.705Z,2.42
2023-04-18T17:51:32.991Z,1.90
2023-04-18T17:54:00.997Z,1.85
2023-04-18T17:56:31.539Z,3.00
2023-04-18T17:58:59.650Z,1.70
2023-04-18T18:01:30.315Z,2.08
2023-04-18T18:03:58.905Z,1.85
2023-04-18T18:06:27.870Z,2.28
2023-04-18T18:08:56.061Z,2.00
2023-04-18T18:11:24.225Z,2.28
2023-04-18T18:13:55.624Z,2.17
2023-04-18T18:16:24.120Z,2.22
2023-04-18T18:18:52.591Z,2.55
2023-04-18T18:21:20.826Z,2.28
2023-04-18T18:23:48.908Z,2.10
2023-04-18T18:26:16.954Z,2.28
2023-04-18T18:28:45.024Z,2.00
2023-04-18T18:31:14.524Z,2.20
2023-04-18T18:33:42.579Z,1.98
2023-04-18T18:36:10.575Z,1.90
2023-04-18T18:38:38.683Z,2.05
2023-04-18T18:41:07.143Z,2.10
2023-04-18T18:43:35.517Z,2.00
2023-04-18T18:46:03.533Z,2.30
2023-04-18T18:48:36.934Z,1.92
2023-04-18T18:51:05.198Z,1.90
2023-04-18T18:53:33.207Z,2.80
2023-04-18T18:56:01.678Z,2.22
2023-04-18T18:58:29.726Z,2.10
2023-04-18T19:00:59.913Z,2.28
2023-04-18T19:03:28.225Z,2.30
2023-04-18T19:05:57.713Z,2.05
2023-04-18T19:08:25.865Z,2.03
2023-04-18T19:10:54.005Z,1.88
2023-04-18T19:13:23.895Z,1.92
2023-04-18T19:15:52.193Z,2.40
2023-04-18T19:18:20.521Z,2.55
2023-04-18T19:20:49.841Z,1.70
2023-04-18T19:23:19.518Z,1.73
2023-04-18T19:25:47.776Z,2.78
2023-04-18T19:28:18.095Z,2.58
2023-04-18T19:30:47.259Z,2.00
2023-04-18T19:33:15.443Z,2.50
2023-04-18T19:35:44.099Z,2.47
2023-04-18T19:38:12.145Z,1.95
2023-04-18T19:40:41.721Z,2.00
2023-04-18T19:43:09.849Z,1.98
2023-04-18T19:45:38.051Z,2.35
2023-04-18T19:48:06.814Z,2.33
2023-04-18T19:50:34.886Z,2.00
2023-04-18T19:53:03.041Z,2.20
2023-04-18T19:55:31.594Z,2.10
2023-04-18T19:58:01.104Z,2.30
2023-04-18T20:00:29.404Z,1.88
2023-04-18T20:02:58.673Z,2.10
2023-04-18T20:05:27.003Z,1.88
2023-04-18T20:07:55.052Z,1.95
2023-04-18T20:10:23.215Z,2.00
2023-04-18T20:12:51.519Z,2.00
2023-04-18T20:15:30.756Z,2.55
2023-04-18T20:17:59.642Z,2.05
2023-04-18T20:20:28.034Z,2.17
2023-04-18T20:22:56.182Z,2.20
2023-04-18T20:25:24.439Z,2.08
2023-04-18T20:27:52.653Z,2.22
2023-04-18T20:30:23.346Z,1.92
2023-04-18T20:32:51.628Z,2.00
2023-04-18T20:35:20.514Z,1.67
2023-04-18T20:37:49.848Z,2.05
2023-04-18T20:40:18.645Z,1.83
2023-04-18T20:42:46.827Z,2.22
2023-04-18T20:45:14.947Z,2.13
2023-04-18T20:47:44.480Z,2.60
2023-04-18T20:50:14.048Z,2.28
2023-04-18T20:52:42.871Z,1.70
2023-04-18T20:55:11.285Z,2.83
2023-04-18T20:57:39.292Z,1.63
2023-04-18T21:00:10.547Z,1.95
2023-04-18T21:02:39.084Z,2.83
2023-04-18T21:05:09.346Z,1.95
2023-04-18T21:07:37.774Z,2.10
2023-04-18T21:10:06.338Z,2.10
2023-04-18T21:12:34.613Z,2.20
2023-04-18T21:15:02.628Z,2.25
2023-04-18T21:17:31.448Z,2.35
2023-04-18T21:19:59.555Z,1.85
2023-04-18T21:22:28.950Z,2.22
2023-04-18T21:24:56.974Z,1.90
2023-04-18T21:27:25.115Z,2.00
2023-04-18T21:29:53.075Z,1.95
2023-04-18T21:32:21.089Z,2.10
2023-04-18T21:34:49.069Z,2.13
2023-04-18T21:37:16.992Z,1.88
2023-04-18T21:39:46.479Z,2.22
2023-04-18T21:42:14.454Z,2.30
2023-04-18T21:44:42.442Z,1.88
2023-04-18T21:47:10.378Z,2.30
2023-04-18T21:49:38.346Z,2.13
2023-04-18T21:52:07.636Z,2.33
2023-04-18T21:54:35.648Z,2.47
2023-04-18T21:57:05.967Z,2.40
2023-04-18T21:59:33.945Z,2.30
2023-04-18T22:02:02.168Z,1.83
2023-04-18T22:04:30.306Z,2.03
2023-04-18T22:06:58.583Z,1.73
2023-04-18T22:09:26.553Z,1.60
2023-04-18T22:11:56.891Z,1.90
2023-04-18T22:14:28.183Z,2.08
2023-04-18T22:16:56.293Z,2.22
2023-04-18T22:19:24.785Z,1.85
2023-04-18T22:21:52.808Z,2.47
2023-04-18T22:24:21.992Z,2.08
2023-04-18T22:26:50.092Z,1.50
2023-04-18T22:29:18.033Z,1.92
2023-04-18T22:31:47.512Z,1.30
2023-04-18T22:34:15.846Z,2.17
2023-04-18T22:36:45.568Z,2.00
2023-04-18T22:39:13.614Z,1.90
2023-04-18T22:41:41.574Z,2.10
2023-04-18T22:44:09.942Z,2.17
2023-04-18T22:46:39.286Z,2.03
2023-04-18T22:49:08.692Z,2.28
2023-04-18T22:51:38.211Z,2.40
2023-04-18T22:54:06.658Z,2.28
2023-04-18T22:56:34.570Z,2.03
2023-04-18T22:59:02.551Z,2.20
2023-04-18T23:01:30.736Z,2.13
2023-04-18T23:03:59.104Z,2.15
2023-04-18T23:06:30.009Z,1.88
2023-04-18T23:08:58.067Z,2.10
2023-04-18T23:11:26.324Z,1.65
2023-04-18T23:13:54.276Z,2.30
2023-04-18T23:16:23.063Z,2.17
2023-04-18T23:18:52.146Z,2.00
2023-04-18T23:21:20.114Z,1.70
2023-04-18T23:23:49.529Z,2.20
2023-04-18T23:26:17.590Z,2.10
2023-04-18T23:28:45.594Z,1.50
2023-04-18T23:31:13.640Z,1.95
2023-04-18T23:33:41.642Z,1.85
2023-04-18T23:36:10.027Z,1.98
2023-04-18T23:38:38.475Z,1.75
2023-04-18T23:41:08.050Z,2.00
2023-04-18T23:43:36.846Z,2.53
2023-04-18T23:46:04.979Z,1.77
2023-04-18T23:48:33.112Z,2.65
2023-04-18T23:51:02.417Z,1.70
2023-04-18T23:53:30.677Z,1.75
2023-04-18T23:55:58.606Z,2.17
2023-04-18T23:58:28.076Z,1.77
